sensor_id;sensor_type;location;lat;lon;timestamp;P1;durP1;ratioP1;P2;durP2;ratioP2
18336;SDS011;9294;51.106;7.028;2023-07-24T00:00:02;1.40;;;1.40;;
18336;SDS011;9294;51.106;7.028;2023-07-24T00:02:29;1.52;;;1.52;;
18336;SDS011;9294;51.106;7.028;2023-07-24T00:04:56;1.70;;;1.70;;
18336;SDS011;9294;51.106;7.028;2023-07-24T00:07:23;1.13;;;1.13;;
18336;SDS011;9294;51.106;7.028;2023-07-24T00:09:51;1.30;;;1.30;;
18336;SDS011;9294;51.106;7.028;2023-07-24T00:12:19;1.25;;;1.25;;
18336;SDS011;9294;51.106;7.028;2023-07-24T00:14:46;1.45;;;1.45;;
18336;SDS011;9294;51.106;7.028;2023-07-24T00:17:13;1.40;;;1.40;;
18336;SDS011;9294;51.106;7.028;2023-07-24T00:19:40;1.27;;;1.27;;
18336;SDS011;9294;51.106;7.028;2023-07-24T00:22:07;1.42;;;1.42;;
18336;SDS011;9294;51.106;7.028;2023-07-24T00:24:34;1.52;;;1.42;;
18336;SDS011;9294;51.106;7.028;2023-07-24T00:27:01;2.28;;;1.40;;
18336;SDS011;9294;51.106;7.028;2023-07-24T00:29:30;1.80;;;1.70;;
18336;SDS011;9294;51.106;7.028;2023-07-24T00:31:57;1.73;;;1.63;;
18336;SDS011;9294;51.106;7.028;2023-07-24T00:34:24;1.50;;;1.50;;
18336;SDS011;9294;51.106;7.028;2023-07-24T00:36:51;1.25;;;1.25;;
18336;SDS011;9294;51.106;7.028;2023-07-24T00:39:18;1.30;;;1.30;;
18336;SDS011;9294;51.106;7.028;2023-07-24T00:41:45;3.92;;;1.70;;
18336;SDS011;9294;51.106;7.028;2023-07-24T00:44:12;1.10;;;1.10;;
18336;SDS011;9294;51.106;7.028;2023-07-24T00:46:40;1.45;;;1.38;;
18336;SDS011;9294;51.106;7.028;2023-07-24T00:49:07;1.40;;;1.40;;
18336;SDS011;9294;51.106;7.028;2023-07-24T00:51:35;1.55;;;1.50;;
18336;SDS011;9294;51.106;7.028;2023-07-24T00:54:02;1.60;;;1.60;;
18336;SDS011;9294;51.106;7.028;2023-07-24T00:56:30;1.35;;;1.30;;
18336;SDS011;9294;51.106;7.028;2023-07-24T00:58:57;1.50;;;1.42;;
18336;SDS011;9294;51.106;7.028;2023-07-24T01:01:25;1.42;;;1.42;;
18336;SDS011;9294;51.106;7.028;2023-07-24T01:03:53;1.45;;;1.45;;
18336;SDS011;9294;51.106;7.028;2023-07-24T01:06:20;1.40;;;1.40;;
18336;SDS011;9294;51.106;7.028;2023-07-24T01:08:47;1.50;;;1.50;;
18336;SDS011;9294;51.106;7.028;2023-07-24T01:11:15;1.55;;;1.55;;
18336;SDS011;9294;51.106;7.028;2023-07-24T01:13:44;1.88;;;1.77;;
18336;SDS011;9294;51.106;7.028;2023-07-24T01:16:14;1.67;;;1.60;;
18336;SDS011;9294;51.106;7.028;2023-07-24T01:18:44;1.35;;;1.35;;
18336;SDS011;9294;51.106;7.028;2023-07-24T01:21:13;1.60;;;1.60;;
18336;SDS011;9294;51.106;7.028;2023-07-24T01:23:44;1.42;;;1.42;;
18336;SDS011;9294;51.106;7.028;2023-07-24T01:26:17;1.65;;;1.58;;
18336;SDS011;9294;51.106;7.028;2023-07-24T01:28:44;1.38;;;1.38;;
18336;SDS011;9294;51.106;7.028;2023-07-24T01:31:12;1.48;;;1.48;;
18336;SDS011;9294;51.106;7.028;2023-07-24T01:33:39;1.30;;;1.30;;
18336;SDS011;9294;51.106;7.028;2023-07-24T01:36:06;1.60;;;1.60;;
18336;SDS011;9294;51.106;7.028;2023-07-24T01:38:34;1.50;;;1.50;;
18336;SDS011;9294;51.106;7.028;2023-07-24T01:41:01;1.38;;;1.38;;
18336;SDS011;9294;51.106;7.028;2023-07-24T01:43:30;1.67;;;1.67;;
18336;SDS011;9294;51.106;7.028;2023-07-24T01:45:58;1.55;;;1.55;;
18336;SDS011;9294;51.106;7.028;2023-07-24T01:48:25;1.30;;;1.30;;
18336;SDS011;9294;51.106;7.028;2023-07-24T01:50:52;1.73;;;1.73;;
18336;SDS011;9294;51.106;7.028;2023-07-24T01:53:19;1.27;;;1.27;;
18336;SDS011;9294;51.106;7.028;2023-07-24T01:55:46;1.58;;;1.58;;
18336;SDS011;9294;51.106;7.028;2023-07-24T01:58:13;1.30;;;1.30;;
18336;SDS011;9294;51.106;7.028;2023-07-24T02:00:41;1.48;;;1.48;;
18336;SDS011;9294;51.106;7.028;2023-07-24T02:03:08;1.60;;;1.60;;
18336;SDS011;9294;51.106;7.028;2023-07-24T02:05:35;1.65;;;1.65;;
18336;SDS011;9294;51.106;7.028;2023-07-24T02:08:02;1.75;;;1.75;;
18336;SDS011;9294;51.106;7.028;2023-07-24T02:10:29;1.60;;;1.60;;
18336;SDS011;9294;51.106;7.028;2023-07-24T02:12:56;1.80;;;1.80;;
18336;SDS011;9294;51.106;7.028;2023-07-24T02:15:23;1.77;;;1.77;;
18336;SDS011;9294;51.106;7.028;2023-07-24T02:17:52;1.67;;;1.67;;
18336;SDS011;9294;51.106;7.028;2023-07-24T02:20:19;1.70;;;1.70;;
18336;SDS011;9294;51.106;7.028;2023-07-24T02:22:46;1.58;;;1.58;;
18336;SDS011;9294;51.106;7.028;2023-07-24T02:25:13;1.52;;;1.50;;
18336;SDS011;9294;51.106;7.028;2023-07-24T02:27:40;1.88;;;1.70;;
18336;SDS011;9294;51.106;7.028;2023-07-24T02:30:07;1.90;;;1.80;;
18336;SDS011;9294;51.106;7.028;2023-07-24T02:32:34;1.70;;;1.70;;
18336;SDS011;9294;51.106;7.028;2023-07-24T02:35:03;1.75;;;1.75;;
18336;SDS011;9294;51.106;7.028;2023-07-24T02:37:30;1.90;;;1.73;;
18336;SDS011;9294;51.106;7.028;2023-07-24T02:39:57;1.80;;;1.80;;
18336;SDS011;9294;51.106;7.028;2023-07-24T02:42:24;1.55;;;1.55;;
18336;SDS011;9294;51.106;7.028;2023-07-24T02:44:51;1.77;;;1.77;;
18336;SDS011;9294;51.106;7.028;2023-07-24T02:47:18;1.40;;;1.40;;
18336;SDS011;9294;51.106;7.028;2023-07-24T02:49:45;1.40;;;1.40;;
18336;SDS011;9294;51.106;7.028;2023-07-24T02:52:14;1.73;;;1.73;;
18336;SDS011;9294;51.106;7.028;2023-07-24T02:54:41;1.77;;;1.77;;
18336;SDS011;9294;51.106;7.028;2023-07-24T02:57:08;1.42;;;1.42;;
18336;SDS011;9294;51.106;7.028;2023-07-24T02:59:35;1.50;;;1.50;;
18336;SDS011;9294;51.106;7.028;2023-07-24T03:02:02;1.70;;;1.60;;
18336;SDS011;9294;51.106;7.028;2023-07-24T03:04:29;1.75;;;1.65;;
18336;SDS011;9294;51.106;7.028;2023-07-24T03:06:56;1.52;;;1.48;;
18336;SDS011;9294;51.106;7.028;2023-07-24T03:09:25;1.60;;;1.60;;
18336;SDS011;9294;51.106;7.028;2023-07-24T03:11:52;1.52;;;1.52;;
18336;SDS011;9294;51.106;7.028;2023-07-24T03:14:19;1.83;;;1.73;;
18336;SDS011;9294;51.106;7.028;2023-07-24T03:16:46;1.85;;;1.85;;
18336;SDS011;9294;51.106;7.028;2023-07-24T03:19:13;1.50;;;1.50;;
18336;SDS011;9294;51.106;7.028;2023-07-24T03:21:42;1.67;;;1.58;;
18336;SDS011;9294;51.106;7.028;2023-07-24T03:24:09;1.90;;;1.80;;
18336;SDS011;9294;51.106;7.028;2023-07-24T03:26:37;1.80;;;1.80;;
18336;SDS011;9294;51.106;7.028;2023-07-24T03:29:05;2.13;;;2.08;;
18336;SDS011;9294;51.106;7.028;2023-07-24T03:31:32;1.88;;;1.77;;
18336;SDS011;9294;51.106;7.028;2023-07-24T03:33:59;1.60;;;1.60;;
18336;SDS011;9294;51.106;7.028;2023-07-24T03:36:26;1.63;;;1.63;;
18336;SDS011;9294;51.106;7.028;2023-07-24T03:38:53;1.70;;;1.70;;
18336;SDS011;9294;51.106;7.028;2023-07-24T03:41:20;1.80;;;1.70;;
18336;SDS011;9294;51.106;7.028;2023-07-24T03:43:48;2.00;;;1.90;;
18336;SDS011;9294;51.106;7.028;2023-07-24T03:46:15;1.52;;;1.52;;
18336;SDS011;9294;51.106;7.028;2023-07-24T03:48:42;1.90;;;1.83;;
18336;SDS011;9294;51.106;7.028;2023-07-24T03:51:09;1.58;;;1.58;;
18336;SDS011;9294;51.106;7.028;2023-07-24T03:53:36;1.70;;;1.70;;
18336;SDS011;9294;51.106;7.028;2023-07-24T03:56:03;2.25;;;2.15;;
18336;SDS011;9294;51.106;7.028;2023-07-24T03:58:30;2.17;;;2.08;;
18336;SDS011;9294;51.106;7.028;2023-07-24T04:00:59;1.77;;;1.77;;
18336;SDS011;9294;51.106;7.028;2023-07-24T04:03:26;1.70;;;1.60;;
18336;SDS011;9294;51.106;7.028;2023-07-24T04:05:53;2.10;;;2.00;;
18336;SDS011;9294;51.106;7.028;2023-07-24T04:08:20;1.65;;;1.65;;
18336;SDS011;9294;51.106;7.028;2023-07-24T04:10:47;1.77;;;1.70;;
18336;SDS011;9294;51.106;7.028;2023-07-24T04:13:14;1.95;;;1.92;;
18336;SDS011;9294;51.106;7.028;2023-07-24T04:15:41;2.00;;;1.90;;
18336;SDS011;9294;51.106;7.028;2023-07-24T04:18:10;2.13;;;2.03;;
18336;SDS011;9294;51.106;7.028;2023-07-24T04:20:37;2.00;;;1.90;;
18336;SDS011;9294;51.106;7.028;2023-07-24T04:23:04;1.58;;;1.58;;
18336;SDS011;9294;51.106;7.028;2023-07-24T04:25:31;1.88;;;1.88;;
18336;SDS011;9294;51.106;7.028;2023-07-24T04:27:59;2.00;;;1.90;;
18336;SDS011;9294;51.106;7.028;2023-07-24T04:30:26;2.00;;;2.00;;
18336;SDS011;9294;51.106;7.028;2023-07-24T04:32:53;1.88;;;1.77;;
18336;SDS011;9294;51.106;7.028;2023-07-24T04:35:21;1.92;;;1.92;;
18336;SDS011;9294;51.106;7.028;2023-07-24T04:37:48;2.33;;;2.22;;
18336;SDS011;9294;51.106;7.028;2023-07-24T04:40:16;2.15;;;1.83;;
18336;SDS011;9294;51.106;7.028;2023-07-24T04:42:43;2.08;;;1.98;;
18336;SDS011;9294;51.106;7.028;2023-07-24T04:45:10;2.03;;;1.92;;
18336;SDS011;9294;51.106;7.028;2023-07-24T04:47:37;2.20;;;2.10;;
18336;SDS011;9294;51.106;7.028;2023-07-24T04:50:05;2.17;;;2.08;;
18336;SDS011;9294;51.106;7.028;2023-07-24T04:52:33;2.22;;;2.13;;
18336;SDS011;9294;51.106;7.028;2023-07-24T04:55:00;2.10;;;2.00;;
18336;SDS011;9294;51.106;7.028;2023-07-24T04:57:27;3.60;;;1.85;;
18336;SDS011;9294;51.106;7.028;2023-07-24T04:59:54;1.65;;;1.65;;
18336;SDS011;9294;51.106;7.028;2023-07-24T05:02:21;2.40;;;2.20;;
18336;SDS011;9294;51.106;7.028;2023-07-24T05:04:49;2.38;;;2.28;;
18336;SDS011;9294;51.106;7.028;2023-07-24T05:07:16;2.10;;;2.00;;
18336;SDS011;9294;51.106;7.028;2023-07-24T05:09:44;2.40;;;2.30;;
18336;SDS011;9294;51.106;7.028;2023-07-24T05:12:11;3.25;;;3.05;;
18336;SDS011;9294;51.106;7.028;2023-07-24T05:14:38;3.63;;;3.33;;
18336;SDS011;9294;51.106;7.028;2023-07-24T05:17:05;4.65;;;4.32;;
18336;SDS011;9294;51.106;7.028;2023-07-24T05:19:32;3.75;;;3.45;;
18336;SDS011;9294;51.106;7.028;2023-07-24T05:21:59;3.75;;;3.55;;
18336;SDS011;9294;51.106;7.028;2023-07-24T05:24:26;4.88;;;4.18;;
18336;SDS011;9294;51.106;7.028;2023-07-24T05:26:55;4.65;;;4.30;;
18336;SDS011;9294;51.106;7.028;2023-07-24T05:29:22;4.35;;;4.03;;
18336;SDS011;9294;51.106;7.028;2023-07-24T05:31:49;5.55;;;4.10;;
18336;SDS011;9294;51.106;7.028;2023-07-24T05:34:16;4.15;;;3.85;;
18336;SDS011;9294;51.106;7.028;2023-07-24T05:36:43;4.68;;;3.85;;
18336;SDS011;9294;51.106;7.028;2023-07-24T05:39:10;5.25;;;4.15;;
18336;SDS011;9294;51.106;7.028;2023-07-24T05:41:37;4.78;;;4.05;;
18336;SDS011;9294;51.106;7.028;2023-07-24T05:44:05;7.72;;;3.55;;
18336;SDS011;9294;51.106;7.028;2023-07-24T05:46:32;4.40;;;3.40;;
18336;SDS011;9294;51.106;7.028;2023-07-24T05:48:59;3.35;;;3.15;;
18336;SDS011;9294;51.106;7.028;2023-07-24T05:51:26;6.03;;;3.13;;
18336;SDS011;9294;51.106;7.028;2023-07-24T05:53:53;3.67;;;3.20;;
18336;SDS011;9294;51.106;7.028;2023-07-24T05:56:20;4.05;;;3.50;;
18336;SDS011;9294;51.106;7.028;2023-07-24T05:58:47;6.85;;;3.35;;
18336;SDS011;9294;51.106;7.028;2023-07-24T06:01:16;5.28;;;3.60;;
18336;SDS011;9294;51.106;7.028;2023-07-24T06:03:43;3.63;;;3.40;;
18336;SDS011;9294;51.106;7.028;2023-07-24T06:06:10;3.13;;;2.92;;
18336;SDS011;9294;51.106;7.028;2023-07-24T06:08:37;5.10;;;4.00;;
18336;SDS011;9294;51.106;7.028;2023-07-24T06:11:04;4.07;;;3.70;;
18336;SDS011;9294;51.106;7.028;2023-07-24T06:13:31;4.07;;;3.53;;
18336;SDS011;9294;51.106;7.028;2023-07-24T06:15:58;4.00;;;3.58;;
18336;SDS011;9294;51.106;7.028;2023-07-24T06:18:26;4.22;;;3.78;;
18336;SDS011;9294;51.106;7.028;2023-07-24T06:20:54;3.42;;;3.17;;
18336;SDS011;9294;51.106;7.028;2023-07-24T06:23:21;5.28;;;3.80;;
18336;SDS011;9294;51.106;7.028;2023-07-24T06:25:48;3.78;;;3.13;;
18336;SDS011;9294;51.106;7.028;2023-07-24T06:28:16;4.93;;;4.07;;
18336;SDS011;9294;51.106;7.028;2023-07-24T06:30:43;4.68;;;3.13;;
18336;SDS011;9294;51.106;7.028;2023-07-24T06:33:10;3.50;;;3.20;;
18336;SDS011;9294;51.106;7.028;2023-07-24T06:35:39;5.85;;;3.88;;
18336;SDS011;9294;51.106;7.028;2023-07-24T06:38:06;4.47;;;3.72;;
18336;SDS011;9294;51.106;7.028;2023-07-24T06:40:34;3.40;;;3.10;;
18336;SDS011;9294;51.106;7.028;2023-07-24T06:43:01;4.40;;;3.45;;
18336;SDS011;9294;51.106;7.028;2023-07-24T06:45:28;5.35;;;3.35;;
18336;SDS011;9294;51.106;7.028;2023-07-24T06:47:55;5.88;;;3.47;;
18336;SDS011;9294;51.106;7.028;2023-07-24T06:50:22;3.95;;;3.50;;
18336;SDS011;9294;51.106;7.028;2023-07-24T06:52:50;3.90;;;3.60;;
18336;SDS011;9294;51.106;7.028;2023-07-24T06:55:18;3.97;;;3.72;;
18336;SDS011;9294;51.106;7.028;2023-07-24T06:57:45;6.63;;;3.92;;
18336;SDS011;9294;51.106;7.028;2023-07-24T07:00:13;3.97;;;3.38;;
18336;SDS011;9294;51.106;7.028;2023-07-24T07:02:40;4.25;;;3.85;;
18336;SDS011;9294;51.106;7.028;2023-07-24T07:05:07;3.53;;;3.05;;
18336;SDS011;9294;51.106;7.028;2023-07-24T07:07:34;6.03;;;3.53;;
18336;SDS011;9294;51.106;7.028;2023-07-24T07:10:03;4.15;;;3.75;;
18336;SDS011;9294;51.106;7.028;2023-07-24T07:12:30;5.75;;;3.75;;
18336;SDS011;9294;51.106;7.028;2023-07-24T07:14:57;6.13;;;3.50;;
18336;SDS011;9294;51.106;7.028;2023-07-24T07:17:24;5.47;;;3.95;;
18336;SDS011;9294;51.106;7.028;2023-07-24T07:19:51;5.07;;;3.47;;
18336;SDS011;9294;51.106;7.028;2023-07-24T07:22:21;3.47;;;3.17;;
18336;SDS011;9294;51.106;7.028;2023-07-24T07:24:48;4.18;;;3.78;;
18336;SDS011;9294;51.106;7.028;2023-07-24T07:27:16;4.70;;;3.33;;
18336;SDS011;9294;51.106;7.028;2023-07-24T07:29:44;5.53;;;3.58;;
18336;SDS011;9294;51.106;7.028;2023-07-24T07:32:11;6.05;;;3.70;;
18336;SDS011;9294;51.106;7.028;2023-07-24T07:34:38;7.03;;;3.65;;
18336;SDS011;9294;51.106;7.028;2023-07-24T07:37:05;3.50;;;3.17;;
18336;SDS011;9294;51.106;7.028;2023-07-24T07:39:32;8.10;;;3.58;;
18336;SDS011;9294;51.106;7.028;2023-07-24T07:41:59;6.57;;;3.75;;
18336;SDS011;9294;51.106;7.028;2023-07-24T07:44:27;8.52;;;3.50;;
18336;SDS011;9294;51.106;7.028;2023-07-24T07:46:54;4.45;;;3.88;;
18336;SDS011;9294;51.106;7.028;2023-07-24T07:49:21;5.70;;;3.60;;
18336;SDS011;9294;51.106;7.028;2023-07-24T07:51:48;3.90;;;3.50;;
18336;SDS011;9294;51.106;7.028;2023-07-24T07:54:15;4.63;;;3.22;;
18336;SDS011;9294;51.106;7.028;2023-07-24T07:56:42;4.90;;;3.45;;
18336;SDS011;9294;51.106;7.028;2023-07-24T07:59:09;3.75;;;3.45;;
18336;SDS011;9294;51.106;7.028;2023-07-24T08:01:38;6.22;;;4.28;;
18336;SDS011;9294;51.106;7.028;2023-07-24T08:04:05;3.60;;;3.15;;
18336;SDS011;9294;51.106;7.028;2023-07-24T08:06:32;5.30;;;3.60;;
18336;SDS011;9294;51.106;7.028;2023-07-24T08:08:59;6.47;;;3.83;;
18336;SDS011;9294;51.106;7.028;2023-07-24T08:11:26;5.40;;;3.88;;
18336;SDS011;9294;51.106;7.028;2023-07-24T08:13:53;4.80;;;3.72;;
18336;SDS011;9294;51.106;7.028;2023-07-24T08:16:20;4.57;;;3.53;;
18336;SDS011;9294;51.106;7.028;2023-07-24T08:18:48;5.47;;;3.65;;
18336;SDS011;9294;51.106;7.028;2023-07-24T08:21:16;9.02;;;3.75;;
18336;SDS011;9294;51.106;7.028;2023-07-24T08:23:44;7.65;;;3.92;;
18336;SDS011;9294;51.106;7.028;2023-07-24T08:26:11;4.80;;;3.75;;
18336;SDS011;9294;51.106;7.028;2023-07-24T08:28:38;4.45;;;3.60;;
18336;SDS011;9294;51.106;7.028;2023-07-24T08:31:07;5.03;;;3.67;;
18336;SDS011;9294;51.106;7.028;2023-07-24T08:33:34;6.40;;;4.03;;
18336;SDS011;9294;51.106;7.028;2023-07-24T08:36:03;5.70;;;4.15;;
18336;SDS011;9294;51.106;7.028;2023-07-24T08:38:30;5.93;;;3.35;;
18336;SDS011;9294;51.106;7.028;2023-07-24T08:41:01;6.18;;;4.05;;
18336;SDS011;9294;51.106;7.028;2023-07-24T08:43:29;4.68;;;3.88;;
18336;SDS011;9294;51.106;7.028;2023-07-24T08:45:57;7.40;;;3.60;;
18336;SDS011;9294;51.106;7.028;2023-07-24T08:48:24;7.40;;;3.97;;
18336;SDS011;9294;51.106;7.028;2023-07-24T08:50:52;3.80;;;3.45;;
18336;SDS011;9294;51.106;7.028;2023-07-24T08:53:20;6.55;;;3.75;;
18336;SDS011;9294;51.106;7.028;2023-07-24T08:55:48;6.93;;;3.85;;
18336;SDS011;9294;51.106;7.028;2023-07-24T08:58:15;3.47;;;3.05;;
18336;SDS011;9294;51.106;7.028;2023-07-24T09:00:42;5.43;;;3.63;;
18336;SDS011;9294;51.106;7.028;2023-07-24T09:03:09;6.28;;;3.92;;
18336;SDS011;9294;51.106;7.028;2023-07-24T09:05:37;4.97;;;3.53;;
18336;SDS011;9294;51.106;7.028;2023-07-24T09:08:04;4.93;;;4.53;;
18336;SDS011;9294;51.106;7.028;2023-07-24T09:10:32;4.00;;;3.70;;
18336;SDS011;9294;51.106;7.028;2023-07-24T09:12:59;7.43;;;3.75;;
18336;SDS011;9294;51.106;7.028;2023-07-24T09:15:28;5.25;;;3.75;;
18336;SDS011;9294;51.106;7.028;2023-07-24T09:17:55;6.68;;;3.83;;
18336;SDS011;9294;51.106;7.028;2023-07-24T09:20:23;8.23;;;4.28;;
18336;SDS011;9294;51.106;7.028;2023-07-24T09:22:52;7.68;;;3.75;;
18336;SDS011;9294;51.106;7.028;2023-07-24T09:25:29;10.13;;;4.22;;
18336;SDS011;9294;51.106;7.028;2023-07-24T09:27:57;4.43;;;3.95;;
18336;SDS011;9294;51.106;7.028;2023-07-24T09:30:24;13.85;;;4.03;;
18336;SDS011;9294;51.106;7.028;2023-07-24T09:32:51;7.10;;;3.85;;
18336;SDS011;9294;51.106;7.028;2023-07-24T09:35:19;7.68;;;4.28;;
18336;SDS011;9294;51.106;7.028;2023-07-24T09:37:51;5.00;;;3.70;;
18336;SDS011;9294;51.106;7.028;2023-07-24T09:40:18;3.65;;;3.35;;
18336;SDS011;9294;51.106;7.028;2023-07-24T09:42:45;4.43;;;4.00;;
18336;SDS011;9294;51.106;7.028;2023-07-24T09:45:13;3.80;;;3.50;;
18336;SDS011;9294;51.106;7.028;2023-07-24T09:47:40;8.85;;;3.58;;
18336;SDS011;9294;51.106;7.028;2023-07-24T09:50:07;4.20;;;3.55;;
18336;SDS011;9294;51.106;7.028;2023-07-24T09:52:35;4.72;;;3.30;;
18336;SDS011;9294;51.106;7.028;2023-07-24T09:55:05;3.70;;;3.40;;
18336;SDS011;9294;51.106;7.028;2023-07-24T09:57:35;6.35;;;4.60;;
18336;SDS011;9294;51.106;7.028;2023-07-24T10:00:02;3.90;;;3.60;;
18336;SDS011;9294;51.106;7.028;2023-07-24T10:02:31;3.65;;;3.33;;
18336;SDS011;9294;51.106;7.028;2023-07-24T10:04:58;5.35;;;3.83;;
18336;SDS011;9294;51.106;7.028;2023-07-24T10:07:25;3.88;;;3.60;;
18336;SDS011;9294;51.106;7.028;2023-07-24T10:09:52;4.85;;;3.35;;
18336;SDS011;9294;51.106;7.028;2023-07-24T10:12:20;3.83;;;3.53;;
18336;SDS011;9294;51.106;7.028;2023-07-24T10:14:47;5.45;;;3.72;;
18336;SDS011;9294;51.106;7.028;2023-07-24T10:17:20;4.15;;;3.85;;
18336;SDS011;9294;51.106;7.028;2023-07-24T10:19:52;4.18;;;3.78;;
18336;SDS011;9294;51.106;7.028;2023-07-24T10:22:28;4.50;;;3.50;;
18336;SDS011;9294;51.106;7.028;2023-07-24T10:24:56;3.63;;;3.33;;
18336;SDS011;9294;51.106;7.028;2023-07-24T10:27:23;3.70;;;3.28;;
18336;SDS011;9294;51.106;7.028;2023-07-24T10:29:57;3.97;;;3.35;;
18336;SDS011;9294;51.106;7.028;2023-07-24T10:32:24;4.75;;;3.60;;
18336;SDS011;9294;51.106;7.028;2023-07-24T10:35:00;3.92;;;3.60;;
18336;SDS011;9294;51.106;7.028;2023-07-24T10:37:34;5.55;;;3.53;;
18336;SDS011;9294;51.106;7.028;2023-07-24T10:40:01;3.80;;;3.50;;
18336;SDS011;9294;51.106;7.028;2023-07-24T10:42:29;4.30;;;3.88;;
18336;SDS011;9294;51.106;7.028;2023-07-24T10:45:05;3.92;;;3.70;;
18336;SDS011;9294;51.106;7.028;2023-07-24T10:47:32;3.60;;;3.15;;
18336;SDS011;9294;51.106;7.028;2023-07-24T10:50:01;5.45;;;4.15;;
18336;SDS011;9294;51.106;7.028;2023-07-24T10:52:29;4.35;;;3.95;;
18336;SDS011;9294;51.106;7.028;2023-07-24T10:54:56;6.72;;;5.25;;
18336;SDS011;9294;51.106;7.028;2023-07-24T10:57:26;8.45;;;6.03;;
18336;SDS011;9294;51.106;7.028;2023-07-24T10:59:53;10.02;;;7.10;;
18336;SDS011;9294;51.106;7.028;2023-07-24T11:02:20;10.55;;;6.85;;
18336;SDS011;9294;51.106;7.028;2023-07-24T11:04:47;11.75;;;5.60;;
18336;SDS011;9294;51.106;7.028;2023-07-24T11:07:16;6.20;;;5.60;;
18336;SDS011;9294;51.106;7.028;2023-07-24T11:09:43;5.78;;;4.90;;
18336;SDS011;9294;51.106;7.028;2023-07-24T11:12:11;7.55;;;4.85;;
18336;SDS011;9294;51.106;7.028;2023-07-24T11:14:48;7.18;;;5.22;;
18336;SDS011;9294;51.106;7.028;2023-07-24T11:17:15;7.05;;;4.90;;
18336;SDS011;9294;51.106;7.028;2023-07-24T11:19:42;6.47;;;5.50;;
18336;SDS011;9294;51.106;7.028;2023-07-24T11:22:09;6.07;;;4.70;;
18336;SDS011;9294;51.106;7.028;2023-07-24T11:24:45;8.57;;;4.53;;
18336;SDS011;9294;51.106;7.028;2023-07-24T11:27:12;6.65;;;4.55;;
18336;SDS011;9294;51.106;7.028;2023-07-24T11:29:40;6.78;;;4.53;;
18336;SDS011;9294;51.106;7.028;2023-07-24T11:32:07;7.65;;;4.60;;
18336;SDS011;9294;51.106;7.028;2023-07-24T11:34:35;5.95;;;4.75;;
18336;SDS011;9294;51.106;7.028;2023-07-24T11:37:02;5.10;;;4.20;;
18336;SDS011;9294;51.106;7.028;2023-07-24T11:39:29;5.63;;;4.72;;
18336;SDS011;9294;51.106;7.028;2023-07-24T11:41:58;5.35;;;4.85;;
18336;SDS011;9294;51.106;7.028;2023-07-24T11:44:26;8.18;;;4.38;;
18336;SDS011;9294;51.106;7.028;2023-07-24T11:46:59;6.75;;;4.45;;
18336;SDS011;9294;51.106;7.028;2023-07-24T11:49:27;5.30;;;4.35;;
18336;SDS011;9294;51.106;7.028;2023-07-24T11:51:59;5.20;;;4.57;;
18336;SDS011;9294;51.106;7.028;2023-07-24T11:54:26;6.03;;;4.13;;
18336;SDS011;9294;51.106;7.028;2023-07-24T11:56:53;7.55;;;4.25;;
18336;SDS011;9294;51.106;7.028;2023-07-24T11:59:21;6.90;;;4.00;;
18336;SDS011;9294;51.106;7.028;2023-07-24T12:01:48;8.48;;;4.13;;
18336;SDS011;9294;51.106;7.028;2023-07-24T12:04:15;4.18;;;3.80;;
18336;SDS011;9294;51.106;7.028;2023-07-24T12:06:43;5.00;;;4.00;;
18336;SDS011;9294;51.106;7.028;2023-07-24T12:09:10;5.22;;;3.70;;
18336;SDS011;9294;51.106;7.028;2023-07-24T12:11:41;4.95;;;3.45;;
18336;SDS011;9294;51.106;7.028;2023-07-24T12:14:08;4.80;;;3.60;;
18336;SDS011;9294;51.106;7.028;2023-07-24T12:16:36;11.25;;;4.03;;
18336;SDS011;9294;51.106;7.028;2023-07-24T12:19:05;4.65;;;4.28;;
18336;SDS011;9294;51.106;7.028;2023-07-24T12:21:32;4.15;;;3.58;;
18336;SDS011;9294;51.106;7.028;2023-07-24T12:23:59;8.90;;;3.83;;
18336;SDS011;9294;51.106;7.028;2023-07-24T12:26:26;4.90;;;3.97;;
18336;SDS011;9294;51.106;7.028;2023-07-24T12:28:53;5.65;;;4.05;;
18336;SDS011;9294;51.106;7.028;2023-07-24T12:31:20;5.70;;;3.80;;
18336;SDS011;9294;51.106;7.028;2023-07-24T12:33:49;4.57;;;3.67;;
18336;SDS011;9294;51.106;7.028;2023-07-24T12:36:16;4.82;;;4.13;;
18336;SDS011;9294;51.106;7.028;2023-07-24T12:38:43;6.25;;;4.05;;
18336;SDS011;9294;51.106;7.028;2023-07-24T12:41:10;5.60;;;3.88;;
18336;SDS011;9294;51.106;7.028;2023-07-24T12:43:37;5.68;;;3.55;;
18336;SDS011;9294;51.106;7.028;2023-07-24T12:46:04;4.15;;;3.83;;
18336;SDS011;9294;51.106;7.028;2023-07-24T12:48:31;4.30;;;3.30;;
18336;SDS011;9294;51.106;7.028;2023-07-24T12:51:00;6.18;;;3.22;;
18336;SDS011;9294;51.106;7.028;2023-07-24T12:53:27;4.10;;;3.50;;
18336;SDS011;9294;51.106;7.028;2023-07-24T12:55:54;7.38;;;4.13;;
18336;SDS011;9294;51.106;7.028;2023-07-24T12:58:21;3.70;;;3.30;;
18336;SDS011;9294;51.106;7.028;2023-07-24T13:00:48;4.65;;;3.40;;
18336;SDS011;9294;51.106;7.028;2023-07-24T13:03:15;4.40;;;4.00;;
18336;SDS011;9294;51.106;7.028;2023-07-24T13:05:42;3.72;;;3.28;;
18336;SDS011;9294;51.106;7.028;2023-07-24T13:08:10;4.80;;;3.22;;
18336;SDS011;9294;51.106;7.028;2023-07-24T13:10:37;3.53;;;3.25;;
18336;SDS011;9294;51.106;7.028;2023-07-24T13:13:04;4.22;;;3.15;;
18336;SDS011;9294;51.106;7.028;2023-07-24T13:15:31;5.65;;;3.70;;
18336;SDS011;9294;51.106;7.028;2023-07-24T13:17:58;3.65;;;3.35;;
18336;SDS011;9294;51.106;7.028;2023-07-24T13:20:25;3.63;;;2.92;;
18336;SDS011;9294;51.106;7.028;2023-07-24T13:22:52;5.05;;;3.05;;
18336;SDS011;9294;51.106;7.028;2023-07-24T13:25:21;4.28;;;3.15;;
18336;SDS011;9294;51.106;7.028;2023-07-24T13:27:48;3.45;;;3.20;;
18336;SDS011;9294;51.106;7.028;2023-07-24T13:30:15;4.55;;;2.90;;
18336;SDS011;9294;51.106;7.028;2023-07-24T13:32:43;3.60;;;3.30;;
18336;SDS011;9294;51.106;7.028;2023-07-24T13:35:10;3.78;;;2.95;;
18336;SDS011;9294;51.106;7.028;2023-07-24T13:37:37;5.45;;;3.55;;
18336;SDS011;9294;51.106;7.028;2023-07-24T13:40:04;4.15;;;3.08;;
18336;SDS011;9294;51.106;7.028;2023-07-24T13:42:33;4.75;;;2.60;;
18336;SDS011;9294;51.106;7.028;2023-07-24T13:45:00;5.82;;;3.25;;
18336;SDS011;9294;51.106;7.028;2023-07-24T13:47:27;3.30;;;3.00;;
18336;SDS011;9294;51.106;7.028;2023-07-24T13:49:54;6.18;;;3.70;;
18336;SDS011;9294;51.106;7.028;2023-07-24T13:52:21;3.70;;;3.15;;
18336;SDS011;9294;51.106;7.028;2023-07-24T13:54:48;2.95;;;2.67;;
18336;SDS011;9294;51.106;7.028;2023-07-24T13:57:15;3.20;;;3.00;;
18336;SDS011;9294;51.106;7.028;2023-07-24T13:59:44;8.07;;;3.00;;
18336;SDS011;9294;51.106;7.028;2023-07-24T14:02:11;5.90;;;3.13;;
18336;SDS011;9294;51.106;7.028;2023-07-24T14:04:38;4.00;;;2.85;;
18336;SDS011;9294;51.106;7.028;2023-07-24T14:07:05;4.22;;;3.13;;
18336;SDS011;9294;51.106;7.028;2023-07-24T14:09:32;3.38;;;2.97;;
18336;SDS011;9294;51.106;7.028;2023-07-24T14:12:00;2.92;;;2.72;;
18336;SDS011;9294;51.106;7.028;2023-07-24T14:14:27;2.92;;;2.72;;
18336;SDS011;9294;51.106;7.028;2023-07-24T14:16:55;5.75;;;2.90;;
18336;SDS011;9294;51.106;7.028;2023-07-24T14:19:22;5.20;;;2.95;;
18336;SDS011;9294;51.106;7.028;2023-07-24T14:21:50;4.05;;;2.63;;
18336;SDS011;9294;51.106;7.028;2023-07-24T14:24:17;5.55;;;2.85;;
18336;SDS011;9294;51.106;7.028;2023-07-24T14:26:44;4.03;;;3.30;;
18336;SDS011;9294;51.106;7.028;2023-07-24T14:29:11;3.58;;;2.67;;
18336;SDS011;9294;51.106;7.028;2023-07-24T14:31:38;5.57;;;3.60;;
18336;SDS011;9294;51.106;7.028;2023-07-24T14:34:06;5.72;;;3.08;;
18336;SDS011;9294;51.106;7.028;2023-07-24T14:36:36;3.45;;;2.80;;
18336;SDS011;9294;51.106;7.028;2023-07-24T14:39:03;5.38;;;2.80;;
18336;SDS011;9294;51.106;7.028;2023-07-24T14:41:31;4.15;;;2.40;;
18336;SDS011;9294;51.106;7.028;2023-07-24T14:43:58;6.47;;;3.53;;
18336;SDS011;9294;51.106;7.028;2023-07-24T14:46:25;4.32;;;3.10;;
18336;SDS011;9294;51.106;7.028;2023-07-24T14:48:52;5.00;;;2.30;;
18336;SDS011;9294;51.106;7.028;2023-07-24T14:51:20;2.95;;;2.75;;
18336;SDS011;9294;51.106;7.028;2023-07-24T14:53:47;5.10;;;2.88;;
18336;SDS011;9294;51.106;7.028;2023-07-24T14:56:15;6.53;;;3.03;;
18336;SDS011;9294;51.106;7.028;2023-07-24T14:58:43;3.38;;;2.80;;
18336;SDS011;9294;51.106;7.028;2023-07-24T15:01:11;4.45;;;2.47;;